sensor_id;sensor_type;location;lat;lon;timestamp;P1;durP1;ratioP1;P2;durP2;ratioP2
16426;SDS011;8322;-33.900;151.170;2023-09-19T00:00:46;5.63;;;3.90;;
16426;SDS011;8322;-33.900;151.170;2023-09-19T00:03:15;5.75;;;3.70;;
16426;SDS011;8322;-33.900;151.170;2023-09-19T00:05:45;7.00;;;3.70;;
16426;SDS011;8322;-33.900;151.170;2023-09-19T00:08:16;6.30;;;4.10;;
16426;SDS011;8322;-33.900;151.170;2023-09-19T00:10:50;4.82;;;3.80;;
16426;SDS011;8322;-33.900;151.170;2023-09-19T00:13:20;5.63;;;3.55;;
16426;SDS011;8322;-33.900;151.170;2023-09-19T00:15:50;5.00;;;3.67;;
16426;SDS011;8322;-33.900;151.170;2023-09-19T00:18:21;7.63;;;4.00;;
16426;SDS011;8322;-33.900;151.170;2023-09-19T00:20:57;6.28;;;3.70;;
16426;SDS011;8322;-33.900;151.170;2023-09-19T00:23:26;6.15;;;3.47;;
16426;SDS011;8322;-33.900;151.170;2023-09-19T00:26:00;7.65;;;4.20;;
16426;SDS011;8322;-33.900;151.170;2023-09-19T00:28:30;9.23;;;3.90;;
16426;SDS011;8322;-33.900;151.170;2023-09-19T00:30:59;6.93;;;3.85;;
16426;SDS011;8322;-33.900;151.170;2023-09-19T00:33:29;6.18;;;3.80;;
16426;SDS011;8322;-33.900;151.170;2023-09-19T00:35:58;7.57;;;3.72;;
16426;SDS011;8322;-33.900;151.170;2023-09-19T00:38:30;4.85;;;3.03;;
16426;SDS011;8322;-33.900;151.170;2023-09-19T00:41:01;4.10;;;3.70;;
16426;SDS011;8322;-33.900;151.170;2023-09-19T00:43:31;5.18;;;3.60;;
16426;SDS011;8322;-33.900;151.170;2023-09-19T00:46:01;4.32;;;3.53;;
16426;SDS011;8322;-33.900;151.170;2023-09-19T00:48:32;7.18;;;3.67;;
16426;SDS011;8322;-33.900;151.170;2023-09-19T00:51:09;5.57;;;3.70;;
16426;SDS011;8322;-33.900;151.170;2023-09-19T00:53:39;5.20;;;3.65;;
16426;SDS011;8322;-33.900;151.170;2023-09-19T00:56:14;4.15;;;3.60;;
16426;SDS011;8322;-33.900;151.170;2023-09-19T00:58:44;6.20;;;3.72;;
16426;SDS011;8322;-33.900;151.170;2023-09-19T01:01:14;7.13;;;3.90;;
16426;SDS011;8322;-33.900;151.170;2023-09-19T01:03:43;6.80;;;3.60;;
16426;SDS011;8322;-33.900;151.170;2023-09-19T01:06:13;7.35;;;3.53;;
16426;SDS011;8322;-33.900;151.170;2023-09-19T01:08:43;4.25;;;3.60;;
16426;SDS011;8322;-33.900;151.170;2023-09-19T01:11:25;4.40;;;3.28;;
16426;SDS011;8322;-33.900;151.170;2023-09-19T01:14:00;4.43;;;3.65;;
16426;SDS011;8322;-33.900;151.170;2023-09-19T01:16:32;4.65;;;3.50;;
16426;SDS011;8322;-33.900;151.170;2023-09-19T01:19:11;6.70;;;3.95;;
16426;SDS011;8322;-33.900;151.170;2023-09-19T01:21:44;5.43;;;4.40;;
16426;SDS011;8322;-33.900;151.170;2023-09-19T01:24:22;4.22;;;3.50;;
16426;SDS011;8322;-33.900;151.170;2023-09-19T01:27:05;7.10;;;4.32;;
16426;SDS011;8322;-33.900;151.170;2023-09-19T01:29:37;5.93;;;3.95;;
16426;SDS011;8322;-33.900;151.170;2023-09-19T01:32:09;6.93;;;4.10;;
16426;SDS011;8322;-33.900;151.170;2023-09-19T01:34:46;5.43;;;3.25;;
16426;SDS011;8322;-33.900;151.170;2023-09-19T01:37:16;7.07;;;3.60;;
16426;SDS011;8322;-33.900;151.170;2023-09-19T01:39:46;4.80;;;3.53;;
16426;SDS011;8322;-33.900;151.170;2023-09-19T01:42:19;5.30;;;3.85;;
16426;SDS011;8322;-33.900;151.170;2023-09-19T01:44:51;4.53;;;3.67;;
16426;SDS011;8322;-33.900;151.170;2023-09-19T01:47:26;5.65;;;3.50;;
16426;SDS011;8322;-33.900;151.170;2023-09-19T01:49:59;6.55;;;3.63;;
16426;SDS011;8322;-33.900;151.170;2023-09-19T01:52:36;7.65;;;3.38;;
16426;SDS011;8322;-33.900;151.170;2023-09-19T01:55:11;4.10;;;3.70;;
16426;SDS011;8322;-33.900;151.170;2023-09-19T01:57:46;7.93;;;4.30;;
16426;SDS011;8322;-33.900;151.170;2023-09-19T02:00:18;5.35;;;3.53;;
16426;SDS011;8322;-33.900;151.170;2023-09-19T02:02:51;4.57;;;3.63;;
16426;SDS011;8322;-33.900;151.170;2023-09-19T02:05:24;6.25;;;3.50;;
16426;SDS011;8322;-33.900;151.170;2023-09-19T02:07:55;8.05;;;5.20;;
16426;SDS011;8322;-33.900;151.170;2023-09-19T02:10:24;4.95;;;3.60;;
16426;SDS011;8322;-33.900;151.170;2023-09-19T02:12:54;4.32;;;3.90;;
16426;SDS011;8322;-33.900;151.170;2023-09-19T02:15:23;6.03;;;4.18;;
16426;SDS011;8322;-33.900;151.170;2023-09-19T02:17:55;5.43;;;3.75;;
16426;SDS011;8322;-33.900;151.170;2023-09-19T02:20:31;7.43;;;4.30;;
16426;SDS011;8322;-33.900;151.170;2023-09-19T02:23:03;4.90;;;3.83;;
16426;SDS011;8322;-33.900;151.170;2023-09-19T02:25:33;4.90;;;4.18;;
16426;SDS011;8322;-33.900;151.170;2023-09-19T02:28:04;5.93;;;4.28;;
16426;SDS011;8322;-33.900;151.170;2023-09-19T02:30:35;4.78;;;4.00;;
16426;SDS011;8322;-33.900;151.170;2023-09-19T02:33:06;4.18;;;3.35;;
16426;SDS011;8322;-33.900;151.170;2023-09-19T02:35:35;5.53;;;3.55;;
16426;SDS011;8322;-33.900;151.170;2023-09-19T02:38:05;4.97;;;3.28;;
16426;SDS011;8322;-33.900;151.170;2023-09-19T02:40:37;6.85;;;3.22;;
16426;SDS011;8322;-33.900;151.170;2023-09-19T02:43:07;6.05;;;3.80;;
16426;SDS011;8322;-33.900;151.170;2023-09-19T02:45:37;6.75;;;3.42;;
16426;SDS011;8322;-33.900;151.170;2023-09-19T02:48:08;11.95;;;6.00;;
16426;SDS011;8322;-33.900;151.170;2023-09-19T02:50:38;7.68;;;4.50;;
16426;SDS011;8322;-33.900;151.170;2023-09-19T02:53:08;7.32;;;3.58;;
16426;SDS011;8322;-33.900;151.170;2023-09-19T02:55:38;4.68;;;3.42;;
16426;SDS011;8322;-33.900;151.170;2023-09-19T02:58:08;4.75;;;3.50;;
16426;SDS011;8322;-33.900;151.170;2023-09-19T03:00:40;5.38;;;3.58;;
16426;SDS011;8322;-33.900;151.170;2023-09-19T03:03:15;3.92;;;3.15;;
16426;SDS011;8322;-33.900;151.170;2023-09-19T03:05:45;5.35;;;3.42;;
16426;SDS011;8322;-33.900;151.170;2023-09-19T03:08:14;7.60;;;3.97;;
16426;SDS011;8322;-33.900;151.170;2023-09-19T03:10:46;3.88;;;3.40;;
16426;SDS011;8322;-33.900;151.170;2023-09-19T03:13:16;3.63;;;3.00;;
16426;SDS011;8322;-33.900;151.170;2023-09-19T03:15:46;4.32;;;3.50;;
16426;SDS011;8322;-33.900;151.170;2023-09-19T03:18:18;4.68;;;3.30;;
16426;SDS011;8322;-33.900;151.170;2023-09-19T03:20:52;5.22;;;3.67;;
16426;SDS011;8322;-33.900;151.170;2023-09-19T03:23:22;4.40;;;3.35;;
16426;SDS011;8322;-33.900;151.170;2023-09-19T03:25:52;4.70;;;3.17;;
16426;SDS011;8322;-33.900;151.170;2023-09-19T03:28:22;4.88;;;3.40;;
16426;SDS011;8322;-33.900;151.170;2023-09-19T03:30:58;4.38;;;3.03;;
16426;SDS011;8322;-33.900;151.170;2023-09-19T03:33:30;4.82;;;3.60;;
16426;SDS011;8322;-33.900;151.170;2023-09-19T03:35:59;4.25;;;3.30;;
16426;SDS011;8322;-33.900;151.170;2023-09-19T03:38:31;4.22;;;3.17;;
16426;SDS011;8322;-33.900;151.170;2023-09-19T03:41:00;5.25;;;3.50;;
16426;SDS011;8322;-33.900;151.170;2023-09-19T03:43:31;3.58;;;3.28;;
16426;SDS011;8322;-33.900;151.170;2023-09-19T03:46:01;4.35;;;3.47;;
16426;SDS011;8322;-33.900;151.170;2023-09-19T03:48:33;6.30;;;3.63;;
16426;SDS011;8322;-33.900;151.170;2023-09-19T03:51:03;3.55;;;3.25;;
16426;SDS011;8322;-33.900;151.170;2023-09-19T03:53:32;5.50;;;3.97;;
16426;SDS011;8322;-33.900;151.170;2023-09-19T03:56:01;7.40;;;3.83;;
16426;SDS011;8322;-33.900;151.170;2023-09-19T03:58:31;4.78;;;3.38;;
16426;SDS011;8322;-33.900;151.170;2023-09-19T04:01:05;6.15;;;4.35;;
16426;SDS011;8322;-33.900;151.170;2023-09-19T04:03:36;5.20;;;3.55;;
16426;SDS011;8322;-33.900;151.170;2023-09-19T04:06:13;5.25;;;3.35;;
16426;SDS011;8322;-33.900;151.170;2023-09-19T04:08:43;3.97;;;3.20;;
16426;SDS011;8322;-33.900;151.170;2023-09-19T04:11:13;4.25;;;3.15;;
16426;SDS011;8322;-33.900;151.170;2023-09-19T04:13:43;4.93;;;3.10;;
16426;SDS011;8322;-33.900;151.170;2023-09-19T04:16:12;4.68;;;3.40;;
16426;SDS011;8322;-33.900;151.170;2023-09-19T04:18:43;3.97;;;3.58;;
16426;SDS011;8322;-33.900;151.170;2023-09-19T04:21:13;4.88;;;3.10;;
16426;SDS011;8322;-33.900;151.170;2023-09-19T04:23:43;3.67;;;2.83;;
16426;SDS011;8322;-33.900;151.170;2023-09-19T04:26:12;3.30;;;3.00;;
16426;SDS011;8322;-33.900;151.170;2023-09-19T04:28:42;4.38;;;3.15;;
16426;SDS011;8322;-33.900;151.170;2023-09-19T04:31:12;5.88;;;3.95;;
16426;SDS011;8322;-33.900;151.170;2023-09-19T04:33:44;3.45;;;3.15;;
16426;SDS011;8322;-33.900;151.170;2023-09-19T04:36:13;4.43;;;3.33;;
16426;SDS011;8322;-33.900;151.170;2023-09-19T04:38:43;5.00;;;3.63;;
16426;SDS011;8322;-33.900;151.170;2023-09-19T04:41:12;6.30;;;3.63;;
16426;SDS011;8322;-33.900;151.170;2023-09-19T04:43:42;4.82;;;3.25;;
16426;SDS011;8322;-33.900;151.170;2023-09-19T04:46:12;4.65;;;3.30;;
16426;SDS011;8322;-33.900;151.170;2023-09-19T04:48:45;6.18;;;3.58;;
16426;SDS011;8322;-33.900;151.170;2023-09-19T04:51:14;3.90;;;3.20;;
16426;SDS011;8322;-33.900;151.170;2023-09-19T04:53:45;4.15;;;3.75;;
16426;SDS011;8322;-33.900;151.170;2023-09-19T04:56:15;4.05;;;3.40;;
16426;SDS011;8322;-33.900;151.170;2023-09-19T04:58:45;5.00;;;3.17;;
16426;SDS011;8322;-33.900;151.170;2023-09-19T05:01:14;3.53;;;3.20;;
16426;SDS011;8322;-33.900;151.170;2023-09-19T05:03:46;4.43;;;3.40;;
16426;SDS011;8322;-33.900;151.170;2023-09-19T05:06:18;3.55;;;2.97;;
16426;SDS011;8322;-33.900;151.170;2023-09-19T05:08:48;16.70;;;7.20;;
16426;SDS011;8322;-33.900;151.170;2023-09-19T05:11:18;23.08;;;8.57;;
16426;SDS011;8322;-33.900;151.170;2023-09-19T05:13:48;19.80;;;9.07;;
16426;SDS011;8322;-33.900;151.170;2023-09-19T05:16:18;23.60;;;8.70;;
16426;SDS011;8322;-33.900;151.170;2023-09-19T05:18:49;20.38;;;8.23;;
16426;SDS011;8322;-33.900;151.170;2023-09-19T05:21:19;20.90;;;8.57;;
16426;SDS011;8322;-33.900;151.170;2023-09-19T05:23:51;22.05;;;8.82;;
16426;SDS011;8322;-33.900;151.170;2023-09-19T05:26:21;22.55;;;8.77;;
16426;SDS011;8322;-33.900;151.170;2023-09-19T05:28:51;19.20;;;8.60;;
16426;SDS011;8322;-33.900;151.170;2023-09-19T05:31:20;18.13;;;8.43;;
16426;SDS011;8322;-33.900;151.170;2023-09-19T05:33:52;24.77;;;8.48;;
16426;SDS011;8322;-33.900;151.170;2023-09-19T05:36:22;19.67;;;8.65;;
16426;SDS011;8322;-33.900;151.170;2023-09-19T05:38:51;26.08;;;9.35;;
16426;SDS011;8322;-33.900;151.170;2023-09-19T05:41:21;22.10;;;9.07;;
16426;SDS011;8322;-33.900;151.170;2023-09-19T05:43:51;23.30;;;9.68;;
16426;SDS011;8322;-33.900;151.170;2023-09-19T05:46:20;23.92;;;8.55;;
16426;SDS011;8322;-33.900;151.170;2023-09-19T05:48:50;24.60;;;8.90;;
16426;SDS011;8322;-33.900;151.170;2023-09-19T05:51:21;19.75;;;8.27;;
16426;SDS011;8322;-33.900;151.170;2023-09-19T05:53:51;21.20;;;8.52;;
16426;SDS011;8322;-33.900;151.170;2023-09-19T05:56:20;27.75;;;8.77;;
16426;SDS011;8322;-33.900;151.170;2023-09-19T05:59:10;21.63;;;7.82;;
16426;SDS011;8322;-33.900;151.170;2023-09-19T06:01:41;24.33;;;8.50;;
16426;SDS011;8322;-33.900;151.170;2023-09-19T06:04:11;24.55;;;8.40;;
16426;SDS011;8322;-33.900;151.170;2023-09-19T06:06:42;19.98;;;7.93;;
16426;SDS011;8322;-33.900;151.170;2023-09-19T06:09:14;22.45;;;8.60;;
16426;SDS011;8322;-33.900;151.170;2023-09-19T06:11:45;33.00;;;11.35;;
16426;SDS011;8322;-33.900;151.170;2023-09-19T06:14:14;20.25;;;7.82;;
16426;SDS011;8322;-33.900;151.170;2023-09-19T06:16:44;19.98;;;7.40;;
16426;SDS011;8322;-33.900;151.170;2023-09-19T06:19:13;22.85;;;8.23;;
16426;SDS011;8322;-33.900;151.170;2023-09-19T06:21:44;23.10;;;8.57;;
16426;SDS011;8322;-33.900;151.170;2023-09-19T06:24:14;22.77;;;7.75;;
16426;SDS011;8322;-33.900;151.170;2023-09-19T06:26:45;20.77;;;7.57;;
16426;SDS011;8322;-33.900;151.170;2023-09-19T06:29:15;21.90;;;8.18;;
16426;SDS011;8322;-33.900;151.170;2023-09-19T06:31:46;21.33;;;8.20;;
16426;SDS011;8322;-33.900;151.170;2023-09-19T06:34:16;24.55;;;7.75;;
16426;SDS011;8322;-33.900;151.170;2023-09-19T06:36:48;22.40;;;7.45;;
16426;SDS011;8322;-33.900;151.170;2023-09-19T06:39:17;23.35;;;8.65;;
16426;SDS011;8322;-33.900;151.170;2023-09-19T06:41:49;22.92;;;7.65;;
16426;SDS011;8322;-33.900;151.170;2023-09-19T06:44:19;26.45;;;7.30;;
16426;SDS011;8322;-33.900;151.170;2023-09-19T06:46:50;22.27;;;7.40;;
16426;SDS011;8322;-33.900;151.170;2023-09-19T06:49:20;25.65;;;7.75;;
16426;SDS011;8322;-33.900;151.170;2023-09-19T06:51:51;23.83;;;7.63;;
16426;SDS011;8322;-33.900;151.170;2023-09-19T06:54:23;20.55;;;7.63;;
16426;SDS011;8322;-33.900;151.170;2023-09-19T06:56:53;23.83;;;7.30;;
16426;SDS011;8322;-33.900;151.170;2023-09-19T06:59:24;24.40;;;7.60;;
16426;SDS011;8322;-33.900;151.170;2023-09-19T07:01:53;23.25;;;7.43;;
16426;SDS011;8322;-33.900;151.170;2023-09-19T07:04:25;22.52;;;7.95;;
16426;SDS011;8322;-33.900;151.170;2023-09-19T07:06:56;38.03;;;18.55;;
16426;SDS011;8322;-33.900;151.170;2023-09-19T07:09:26;28.55;;;12.98;;
16426;SDS011;8322;-33.900;151.170;2023-09-19T07:11:55;24.95;;;8.48;;
16426;SDS011;8322;-33.900;151.170;2023-09-19T07:14:25;26.20;;;9.75;;
16426;SDS011;8322;-33.900;151.170;2023-09-19T07:16:56;24.33;;;9.88;;
16426;SDS011;8322;-33.900;151.170;2023-09-19T07:19:31;20.45;;;7.50;;
16426;SDS011;8322;-33.900;151.170;2023-09-19T07:22:04;21.40;;;7.80;;
16426;SDS011;8322;-33.900;151.170;2023-09-19T07:24:33;24.70;;;8.07;;
16426;SDS011;8322;-33.900;151.170;2023-09-19T07:27:03;24.23;;;8.40;;
16426;SDS011;8322;-33.900;151.170;2023-09-19T07:29:33;26.92;;;9.35;;
16426;SDS011;8322;-33.900;151.170;2023-09-19T07:32:02;23.35;;;10.38;;
16426;SDS011;8322;-33.900;151.170;2023-09-19T07:34:32;28.58;;;10.50;;
16426;SDS011;8322;-33.900;151.170;2023-09-19T07:37:03;21.92;;;10.27;;
16426;SDS011;8322;-33.900;151.170;2023-09-19T07:39:34;19.55;;;8.82;;
16426;SDS011;8322;-33.900;151.170;2023-09-19T07:42:03;22.00;;;9.23;;
16426;SDS011;8322;-33.900;151.170;2023-09-19T07:44:33;23.35;;;8.63;;
16426;SDS011;8322;-33.900;151.170;2023-09-19T07:47:04;17.83;;;7.35;;
16426;SDS011;8322;-33.900;151.170;2023-09-19T07:49:33;26.40;;;7.65;;
16426;SDS011;8322;-33.900;151.170;2023-09-19T07:52:05;21.48;;;7.38;;
16426;SDS011;8322;-33.900;151.170;2023-09-19T07:54:34;25.90;;;8.13;;
16426;SDS011;8322;-33.900;151.170;2023-09-19T07:57:04;26.60;;;9.00;;
16426;SDS011;8322;-33.900;151.170;2023-09-19T07:59:34;34.28;;;11.02;;
16426;SDS011;8322;-33.900;151.170;2023-09-19T08:02:04;26.77;;;10.02;;
16426;SDS011;8322;-33.900;151.170;2023-09-19T08:04:41;29.08;;;10.30;;
16426;SDS011;8322;-33.900;151.170;2023-09-19T08:07:14;25.70;;;8.88;;
16426;SDS011;8322;-33.900;151.170;2023-09-19T08:09:44;25.20;;;11.85;;
16426;SDS011;8322;-33.900;151.170;2023-09-19T08:12:14;32.80;;;13.77;;
16426;SDS011;8322;-33.900;151.170;2023-09-19T08:14:45;31.88;;;13.93;;
16426;SDS011;8322;-33.900;151.170;2023-09-19T08:17:15;28.33;;;12.50;;
16426;SDS011;8322;-33.900;151.170;2023-09-19T08:19:45;32.08;;;11.25;;
16426;SDS011;8322;-33.900;151.170;2023-09-19T08:22:17;26.02;;;9.68;;
16426;SDS011;8322;-33.900;151.170;2023-09-19T08:24:47;32.95;;;11.43;;
16426;SDS011;8322;-33.900;151.170;2023-09-19T08:27:16;29.30;;;10.18;;
16426;SDS011;8322;-33.900;151.170;2023-09-19T08:29:46;26.80;;;10.82;;
16426;SDS011;8322;-33.900;151.170;2023-09-19T08:32:17;25.27;;;10.90;;
16426;SDS011;8322;-33.900;151.170;2023-09-19T08:34:50;28.70;;;12.73;;
16426;SDS011;8322;-33.900;151.170;2023-09-19T08:37:21;31.13;;;13.60;;
16426;SDS011;8322;-33.900;151.170;2023-09-19T08:39:50;26.25;;;11.60;;
16426;SDS011;8322;-33.900;151.170;2023-09-19T08:42:20;34.25;;;12.80;;
16426;SDS011;8322;-33.900;151.170;2023-09-19T08:44:53;26.90;;;11.48;;
16426;SDS011;8322;-33.900;151.170;2023-09-19T08:47:25;32.83;;;12.70;;
16426;SDS011;8322;-33.900;151.170;2023-09-19T08:50:04;31.52;;;12.20;;
16426;SDS011;8322;-33.900;151.170;2023-09-19T08:52:40;30.00;;;12.13;;
16426;SDS011;8322;-33.900;151.170;2023-09-19T08:55:11;32.97;;;12.80;;
16426;SDS011;8322;-33.900;151.170;2023-09-19T08:57:47;30.55;;;11.93;;
16426;SDS011;8322;-33.900;151.170;2023-09-19T09:00:18;26.15;;;11.65;;
16426;SDS011;8322;-33.900;151.170;2023-09-19T09:02:48;29.15;;;11.90;;
16426;SDS011;8322;-33.900;151.170;2023-09-19T09:05:20;32.42;;;11.90;;
16426;SDS011;8322;-33.900;151.170;2023-09-19T09:07:52;30.00;;;10.98;;
16426;SDS011;8322;-33.900;151.170;2023-09-19T09:10:23;30.95;;;11.45;;
16426;SDS011;8322;-33.900;151.170;2023-09-19T09:12:53;25.40;;;11.20;;
16426;SDS011;8322;-33.900;151.170;2023-09-19T09:15:22;34.00;;;12.85;;
16426;SDS011;8322;-33.900;151.170;2023-09-19T09:17:52;39.13;;;14.98;;
16426;SDS011;8322;-33.900;151.170;2023-09-19T09:20:21;33.20;;;12.63;;
16426;SDS011;8322;-33.900;151.170;2023-09-19T09:22:53;36.65;;;11.20;;
16426;SDS011;8322;-33.900;151.170;2023-09-19T09:25:46;30.00;;;10.98;;
16426;SDS011;8322;-33.900;151.170;2023-09-19T09:28:19;24.98;;;8.70;;
16426;SDS011;8322;-33.900;151.170;2023-09-19T09:30:49;21.17;;;9.30;;
16426;SDS011;8322;-33.900;151.170;2023-09-19T09:33:18;26.60;;;10.27;;
16426;SDS011;8322;-33.900;151.170;2023-09-19T09:35:49;25.02;;;10.15;;
16426;SDS011;8322;-33.900;151.170;2023-09-19T09:38:26;25.63;;;10.73;;
16426;SDS011;8322;-33.900;151.170;2023-09-19T09:40:58;23.17;;;10.05;;
16426;SDS011;8322;-33.900;151.170;2023-09-19T09:43:32;25.35;;;10.05;;
16426;SDS011;8322;-33.900;151.170;2023-09-19T09:46:12;26.00;;;10.35;;
16426;SDS011;8322;-33.900;151.170;2023-09-19T09:48:58;22.95;;;10.13;;
16426;SDS011;8322;-33.900;151.170;2023-09-19T09:51:41;26.77;;;10.80;;
16426;SDS011;8322;-33.900;151.170;2023-09-19T09:54:15;26.08;;;11.68;;
16426;SDS011;8322;-33.900;151.170;2023-09-19T09:56:52;32.25;;;13.40;;
16426;SDS011;8322;-33.900;151.170;2023-09-19T09:59:46;23.85;;;11.43;;
16426;SDS011;8322;-33.900;151.170;2023-09-19T10:02:16;28.88;;;11.00;;
16426;SDS011;8322;-33.900;151.170;2023-09-19T10:04:50;23.10;;;9.80;;
16426;SDS011;8322;-33.900;151.170;2023-09-19T10:07:25;26.50;;;10.63;;
16426;SDS011;8322;-33.900;151.170;2023-09-19T10:10:03;26.58;;;11.80;;
16426;SDS011;8322;-33.900;151.170;2023-09-19T10:12:52;31.75;;;15.43;;
16426;SDS011;8322;-33.900;151.170;2023-09-19T10:15:25;25.35;;;10.90;;
16426;SDS011;8322;-33.900;151.170;2023-09-19T10:17:57;21.70;;;10.48;;
16426;SDS011;8322;-33.900;151.170;2023-09-19T10:20:30;18.92;;;8.98;;
16426;SDS011;8322;-33.900;151.170;2023-09-19T10:23:05;18.10;;;9.35;;
16426;SDS011;8322;-33.900;151.170;2023-09-19T10:25:40;19.08;;;9.18;;
16426;SDS011;8322;-33.900;151.170;2023-09-19T10:28:12;24.00;;;11.32;;
16426;SDS011;8322;-33.900;151.170;2023-09-19T10:30:42;22.20;;;10.20;;
16426;SDS011;8322;-33.900;151.170;2023-09-19T10:33:13;17.60;;;8.18;;
16426;SDS011;8322;-33.900;151.170;2023-09-19T10:35:43;14.15;;;7.40;;
16426;SDS011;8322;-33.900;151.170;2023-09-19T10:38:14;14.77;;;8.02;;
16426;SDS011;8322;-33.900;151.170;2023-09-19T10:40:48;16.67;;;8.15;;
16426;SDS011;8322;-33.900;151.170;2023-09-19T10:43:18;15.27;;;8.45;;
16426;SDS011;8322;-33.900;151.170;2023-09-19T10:45:48;18.33;;;7.85;;
16426;SDS011;8322;-33.900;151.170;2023-09-19T10:48:19;18.85;;;7.80;;
16426;SDS011;8322;-33.900;151.170;2023-09-19T10:50:52;20.30;;;9.98;;
16426;SDS011;8322;-33.900;151.170;2023-09-19T10:53:25;21.50;;;10.30;;
16426;SDS011;8322;-33.900;151.170;2023-09-19T10:55:58;24.25;;;9.85;;
16426;SDS011;8322;-33.900;151.170;2023-09-19T10:58:35;14.88;;;7.97;;
16426;SDS011;8322;-33.900;151.170;2023-09-19T11:01:06;18.90;;;8.20;;
16426;SDS011;8322;-33.900;151.170;2023-09-19T11:03:38;17.70;;;8.27;;
16426;SDS011;8322;-33.900;151.170;2023-09-19T11:06:09;20.75;;;7.97;;
16426;SDS011;8322;-33.900;151.170;2023-09-19T11:08:53;16.73;;;7.70;;
16426;SDS011;8322;-33.900;151.170;2023-09-19T11:11:41;20.02;;;8.50;;
16426;SDS011;8322;-33.900;151.170;2023-09-19T11:14:15;21.33;;;8.07;;
16426;SDS011;8322;-33.900;151.170;2023-09-19T11:22:14;17.73;;;7.65;;
16426;SDS011;8322;-33.900;151.170;2023-09-19T11:24:44;20.27;;;8.13;;
16426;SDS011;8322;-33.900;151.170;2023-09-19T11:27:18;22.00;;;8.25;;
16426;SDS011;8322;-33.900;151.170;2023-09-19T11:29:48;17.80;;;7.25;;
16426;SDS011;8322;-33.900;151.170;2023-09-19T11:35:37;20.33;;;6.90;;
16426;SDS011;8322;-33.900;151.170;2023-09-19T11:46:55;19.00;;;8.30;;
16426;SDS011;8322;-33.900;151.170;2023-09-19T11:49:26;13.52;;;6.97;;
16426;SDS011;8322;-33.900;151.170;2023-09-19T11:51:56;15.18;;;6.38;;
16426;SDS011;8322;-33.900;151.170;2023-09-19T11:54:27;13.85;;;6.78;;
16426;SDS011;8322;-33.900;151.170;2023-09-19T11:56:58;13.95;;;6.03;;
16426;SDS011;8322;-33.900;151.170;2023-09-19T11:59:28;11.35;;;5.57;;
16426;SDS011;8322;-33.900;151.170;2023-09-19T12:02:05;12.60;;;5.78;;
16426;SDS011;8322;-33.900;151.170;2023-09-19T12:04:36;12.00;;;6.05;;
16426;SDS011;8322;-33.900;151.170;2023-09-19T12:07:10;11.13;;;5.63;;
16426;SDS011;8322;-33.900;151.170;2023-09-19T12:09:41;12.98;;;5.70;;
16426;SDS011;8322;-33.900;151.170;2023-09-19T12:12:18;11.20;;;5.60;;
16426;SDS011;8322;-33.900;151.170;2023-09-19T12:14:48;13.25;;;5.93;;
16426;SDS011;8322;-33.900;151.170;2023-09-19T12:17:19;10.68;;;5.30;;
16426;SDS011;8322;-33.900;151.170;2023-09-19T12:19:50;13.90;;;5.00;;
16426;SDS011;8322;-33.900;151.170;2023-09-19T12:22:20;14.13;;;5.22;;
16426;SDS011;8322;-33.900;151.170;2023-09-19T12:24:50;13.95;;;5.60;;
16426;SDS011;8322;-33.900;151.170;2023-09-19T12:27:20;14.65;;;5.72;;
16426;SDS011;8322;-33.900;151.170;2023-09-19T12:29:51;12.73;;;5.57;;
16426;SDS011;8322;-33.900;151.170;2023-09-19T12:32:35;11.38;;;5.20;;
16426;SDS011;8322;-33.900;151.170;2023-09-19T12:35:06;10.98;;;4.63;;
16426;SDS011;8322;-33.900;151.170;2023-09-19T12:37:37;10.13;;;5.00;;
16426;SDS011;8322;-33.900;151.170;2023-09-19T12:40:06;10.65;;;5.45;;
16426;SDS011;8322;-33.900;151.170;2023-09-19T12:42:43;9.13;;;5.00;;
16426;SDS011;8322;-33.900;151.170;2023-09-19T12:45:13;13.02;;;5.18;;
16426;SDS011;8322;-33.900;151.170;2023-09-19T12:50:29;12.65;;;5.65;;
16426;SDS011;8322;-33.900;151.170;2023-09-19T12:52:59;10.27;;;5.00;;
16426;SDS011;8322;-33.900;151.170;2023-09-19T12:55:28;9.38;;;5.10;;
16426;SDS011;8322;-33.900;151.170;2023-09-19T12:57:59;9.85;;;5.03;;
16426;SDS011;8322;-33.900;151.170;2023-09-19T13:00:32;12.70;;;5.22;;
16426;SDS011;8322;-33.900;151.170;2023-09-19T13:03:12;8.52;;;4.40;;
16426;SDS011;8322;-33.900;151.170;2023-09-19T13:05:54;14.48;;;5.07;;
16426;SDS011;8322;-33.900;151.170;2023-09-19T13:08:24;10.70;;;4.80;;
16426;SDS011;8322;-33.900;151.170;2023-09-19T13:11:04;10.40;;;4.75;;
16426;SDS011;8322;-33.900;151.170;2023-09-19T13:13:41;12.32;;;5.30;;
16426;SDS011;8322;-33.900;151.170;2023-09-19T13:16:10;11.48;;;5.45;;
16426;SDS011;8322;-33.900;151.170;2023-09-19T13:18:48;11.77;;;5.38;;
16426;SDS011;8322;-33.900;151.170;2023-09-19T13:21:31;11.93;;;5.25;;
16426;SDS011;8322;-33.900;151.170;2023-09-19T13:24:18;9.60;;;4.95;;
16426;SDS011;8322;-33.900;151.170;2023-09-19T13:26:48;9.75;;;4.35;;
16426;SDS011;8322;-33.900;151.170;2023-09-19T13:29:18;9.27;;;4.53;;
16426;SDS011;8322;-33.900;151.170;2023-09-19T13:31:47;9.55;;;4.50;;
16426;SDS011;8322;-33.900;151.170;2023-09-19T13:34:18;6.90;;;3.90;;
16426;SDS011;8322;-33.900;151.170;2023-09-19T13:36:50;11.77;;;4.20;;
16426;SDS011;8322;-33.900;151.170;2023-09-19T13:39:20;6.18;;;4.05;;
16426;SDS011;8322;-33.900;151.170;2023-09-19T13:41:50;7.15;;;4.38;;
16426;SDS011;8322;-33.900;151.170;2023-09-19T13:44:20;4.68;;;3.50;;
16426;SDS011;8322;-33.900;151.170;2023-09-19T13:46:49;6.65;;;4.22;;
16426;SDS011;8322;-33.900;151.170;2023-09-19T13:49:20;7.85;;;3.92;;
16426;SDS011;8322;-33.900;151.170;2023-09-19T13:51:52;6.97;;;3.70;;
16426;SDS011;8322;-33.900;151.170;2023-09-19T13:54:21;6.53;;;3.80;;
16426;SDS011;8322;-33.900;151.170;2023-09-19T13:56:50;7.25;;;3.92;;
16426;SDS011;8322;-33.900;151.170;2023-09-19T13:59:20;5.25;;;3.92;;
16426;SDS011;8322;-33.900;151.170;2023-09-19T14:01:50;7.10;;;3.78;;
16426;SDS011;8322;-33.900;151.170;2023-09-19T14:04:19;4.40;;;3.72;;
16426;SDS011;8322;-33.900;151.170;2023-09-19T14:06:49;5.85;;;3.88;;
16426;SDS011;8322;-33.900;151.170;2023-09-19T14:09:23;4.80;;;3.70;;
16426;SDS011;8322;-33.900;151.170;2023-09-19T14:11:53;7.28;;;3.88;;
16426;SDS011;8322;-33.900;151.170;2023-09-19T14:14:23;6.18;;;3.75;;
16426;SDS011;8322;-33.900;151.170;2023-09-19T14:16:52;6.55;;;4.07;;
16426;SDS011;8322;-33.900;151.170;2023-09-19T14:19:22;6.93;;;3.85;;
16426;SDS011;8322;-33.900;151.170;2023-09-19T14:21:51;6.03;;;3.65;;
16426;SDS011;8322;-33.900;151.170;2023-09-19T14:24:21;5.40;;;3.75;;
16426;SDS011;8322;-33.900;151.170;2023-09-19T14:26:52;5.18;;;3.72;;
16426;SDS011;8322;-33.900;151.170;2023-09-19T14:29:22;6.78;;;3.78;;
16426;SDS011;8322;-33.900;151.170;2023-09-19T14:31:51;6.55;;;3.55;;
16426;SDS011;8322;-33.900;151.170;2023-09-19T14:34:23;5.90;;;3.60;;
16426;SDS011;8322;-33.900;151.170;2023-09-19T14:36:52;4.40;;;3.67;;
16426;SDS011;8322;-33.900;151.170;2023-09-19T14:39:22;6.28;;;4.13;;
16426;SDS011;8322;-33.900;151.170;2023-09-19T14:41:53;4.28;;;3.72;;
16426;SDS011;8322;-33.900;151.170;2023-09-19T14:44:23;5.65;;;3.90;;
16426;SDS011;8322;-33.900;151.170;2023-09-19T14:46:54;6.30;;;4.40;;
16426;SDS011;8322;-33.900;151.170;2023-09-19T14:49:23;5.78;;;3.90;;
16426;SDS011;8322;-33.900;151.170;2023-09-19T14:51:52;7.82;;;4.35;;
16426;SDS011;8322;-33.900;151.170;2023-09-19T14:54:22;5.55;;;4.07;;
16426;SDS011;8322;-33.900;151.170;2023-09-19T14:56:57;6.05;;;4.75;;
16426;SDS011;8322;-33.900;151.170;2023-09-19T14:59:30;7.55;;;4.32;;